createdAt,value
2022-07-25T00:36:22.135Z,63.43
2022-07-25T00:47:03.341Z,63.36
2022-07-25T00:50:46.859Z,63.48
2022-07-25T00:54:12.329Z,63.76
2022-07-25T00:57:28.324Z,63.13
2022-07-25T01:01:03.173Z,63.75
2022-07-25T01:05:10.252Z,63.73
2022-07-25T01:08:17.318Z,64.30
2022-07-25T01:11:13.666Z,64.56
2022-07-25T01:14:16.497Z,64.39
2022-07-25T01:17:31.160Z,64.93
2022-07-25T01:29:49.036Z,64.49
2022-07-25T01:58:10.294Z,64.95
2022-07-25T02:21:40.135Z,64.18
2022-07-25T02:47:04.693Z,65.35
2022-07-25T02:49:57.190Z,65.40
2022-07-25T02:59:52.583Z,65.88
2022-07-25T03:03:41.305Z,65.75
2022-07-25T03:06:40.709Z,65.36
2022-07-25T03:10:19.119Z,66.09
2022-07-25T03:14:35.177Z,65.84
2022-07-25T03:37:28.664Z,67.07
2022-07-25T03:50:28.662Z,66.98
2022-07-25T03:56:24.189Z,67.44
2022-07-25T04:02:07.396Z,67.52
2022-07-25T04:04:36.279Z,67.60
2022-07-25T04:07:17.005Z,67.98
2022-07-25T04:09:45.262Z,67.78
2022-07-25T04:12:24.314Z,68.12
2022-07-25T04:15:07.062Z,68.13
2022-07-25T04:17:50.056Z,67.98
2022-07-25T04:20:26.494Z,68.28
2022-07-25T04:23:15.226Z,67.94
2022-07-25T04:25:52.341Z,68.22
2022-07-25T04:28:28.838Z,67.67
2022-07-25T04:31:01.140Z,68.05
2022-07-25T04:33:33.790Z,67.96
2022-07-25T04:36:07.884Z,68.19
2022-07-25T04:38:36.776Z,68.12
2022-07-25T04:41:26.498Z,67.94
2022-07-25T04:44:15.452Z,66.67
2022-07-25T05:37:06.777Z,41.54
2022-07-25T05:39:35.090Z,40.01
2022-07-25T05:42:02.861Z,38.65
2022-07-25T05:44:30.734Z,38.62
2022-07-25T05:46:58.650Z,38.13
2022-07-25T05:49:27.965Z,36.90
2022-07-25T05:51:55.809Z,37.28
2022-07-25T05:54:23.624Z,36.06
2022-07-25T05:56:51.802Z,34.45
2022-07-25T05:59:20.536Z,34.77
2022-07-25T06:01:53.669Z,33.96
2022-07-25T07:59:48.041Z,26.44
2022-07-25T08:31:22.197Z,26.52
2022-07-25T08:34:37.907Z,27.02
2022-07-25T08:37:14.770Z,27.92
2022-07-25T08:39:45.252Z,29.07
2022-07-25T08:42:13.944Z,28.17
2022-07-25T08:44:45.149Z,27.05
2022-07-25T08:47:15.987Z,30.21
2022-07-25T08:49:44.224Z,30.74
2022-07-25T08:52:13.066Z,31.06
2022-07-25T08:54:42.759Z,28.60
2022-07-25T08:57:11.476Z,30.13
2022-07-25T09:10:06.693Z,25.80
2022-07-25T09:24:59.885Z,27.63
2022-07-25T09:30:38.915Z,25.60
2022-07-25T09:41:56.851Z,26.96
2022-07-25T10:05:16.256Z,25.49
2022-07-25T10:07:49.409Z,25.41
2022-07-25T10:10:27.245Z,26.23
2022-07-25T10:13:09.481Z,28.38
2022-07-25T10:15:57.625Z,27.52
2022-07-25T10:18:28.876Z,28.31
2022-07-25T10:21:24.562Z,28.91
2022-07-25T10:24:02.399Z,29.00
2022-07-25T10:26:30.954Z,29.00
2022-07-25T10:28:59.879Z,28.61
2022-07-25T10:31:37.636Z,30.21
2022-07-25T10:34:08.107Z,31.89
2022-07-25T10:36:48.349Z,31.64
2022-07-25T10:39:18.143Z,31.34
2022-07-25T10:41:52.382Z,30.90
2022-07-25T10:44:20.569Z,29.99
2022-07-25T10:46:50.389Z,30.68
2022-07-25T10:49:23.662Z,32.10
2022-07-25T10:51:58.763Z,34.96
2022-07-25T10:54:26.839Z,36.51
2022-07-25T10:56:58.240Z,40.12
2022-07-25T10:59:35.132Z,38.81
2022-07-25T11:02:06.517Z,40.73
2022-07-25T11:04:34.768Z,42.18
2022-07-25T11:07:10.409Z,42.99
2022-07-25T11:09:38.834Z,43.21
2022-07-25T11:12:07.487Z,45.30
2022-07-25T11:14:37.460Z,44.30
2022-07-25T11:17:20.067Z,46.51
2022-07-25T11:19:55.788Z,46.20
2022-07-25T11:22:24.216Z,47.75
2022-07-25T11:46:19.962Z,39.79
2022-07-25T11:48:48.942Z,37.00
2022-07-25T11:51:19.564Z,36.94
2022-07-25T11:53:50.173Z,34.97
2022-07-25T11:56:41.249Z,34.41
2022-07-25T11:59:09.604Z,33.45
2022-07-25T12:01:40.812Z,32.86
2022-07-25T12:04:11.045Z,33.66
2022-07-25T12:06:39.336Z,32.30
2022-07-25T12:09:18.851Z,32.91
2022-07-25T12:11:50.120Z,31.73
2022-07-25T12:14:18.128Z,32.50
2022-07-25T12:16:47.529Z,32.33
2022-07-25T12:19:24.233Z,33.12
2022-07-25T12:21:52.189Z,34.64
2022-07-25T12:24:20.185Z,35.17
2022-07-25T12:26:48.113Z,34.60
2022-07-25T12:29:16.465Z,35.23
2022-07-25T12:31:44.502Z,34.13
2022-07-25T12:34:14.098Z,33.92
2022-07-25T12:36:44.985Z,32.92
2022-07-25T12:39:13.456Z,34.12
2022-07-25T12:41:42.693Z,32.72
2022-07-25T12:44:11.232Z,32.94
2022-07-25T12:46:47.279Z,33.55
2022-07-25T12:49:18.852Z,34.00
2022-07-25T12:51:46.820Z,34.11
2022-07-25T12:54:21.578Z,32.21
2022-07-25T12:56:50.270Z,34.39
2022-07-25T12:59:18.360Z,33.92
2022-07-25T13:01:46.568Z,33.69
2022-07-25T13:04:16.728Z,34.69
2022-07-25T13:06:46.376Z,34.70
2022-07-25T13:09:14.614Z,33.69
2022-07-25T13:11:42.542Z,35.36
2022-07-25T13:14:11.547Z,34.65
2022-07-25T13:16:40.195Z,33.66
2022-07-25T13:19:09.319Z,32.66
2022-07-25T13:21:38.103Z,33.42
2022-07-25T13:24:08.683Z,32.25
2022-07-25T13:26:37.517Z,32.37
2022-07-25T13:29:08.566Z,33.16
2022-07-25T13:31:38.977Z,33.28
2022-07-25T13:34:08.922Z,31.75
2022-07-25T13:36:39.650Z,31.82
2022-07-25T13:39:15.201Z,32.29
2022-07-25T13:41:43.252Z,32.63
2022-07-25T13:44:11.286Z,32.67
2022-07-25T13:46:39.406Z,33.45
2022-07-25T13:49:11.488Z,31.32
2022-07-25T13:51:41.392Z,32.73
2022-07-25T13:54:14.528Z,32.66
2022-07-25T13:56:43.222Z,33.16
2022-07-25T13:59:16.064Z,33.24
2022-07-25T14:01:47.435Z,32.16
2022-07-25T14:04:15.480Z,30.36
2022-07-25T14:06:43.494Z,31.81
2022-07-25T14:09:11.640Z,32.21
2022-07-25T14:11:41.485Z,32.17
2022-07-25T14:14:09.406Z,30.71
2022-07-25T14:16:37.461Z,32.22
2022-07-25T14:19:06.040Z,32.17
2022-07-25T14:21:34.086Z,33.57
2022-07-25T14:24:01.883Z,32.46
2022-07-25T14:26:31.056Z,32.04
2022-07-25T14:29:00.679Z,34.05
2022-07-25T14:31:29.274Z,34.70
2022-07-25T14:33:58.216Z,33.98
2022-07-25T14:36:26.120Z,33.14
2022-07-25T14:38:56.772Z,33.33
2022-07-25T14:41:24.593Z,33.31
2022-07-25T14:43:52.553Z,32.06
2022-07-25T14:46:21.825Z,32.65
2022-07-25T14:48:49.722Z,33.82
2022-07-25T14:51:19.885Z,33.10
2022-07-25T14:53:53.100Z,33.11
2022-07-25T14:56:22.200Z,33.43
2022-07-25T14:58:50.438Z,33.85
2022-07-25T15:01:21.117Z,34.98
2022-07-25T15:03:50.802Z,34.15
2022-07-25T15:06:18.779Z,34.75
2022-07-25T15:08:46.703Z,33.14
2022-07-25T15:11:14.648Z,34.72
2022-07-25T15:13:43.280Z,34.12
2022-07-25T15:16:11.327Z,34.21
2022-07-25T15:28:13.391Z,36.11
2022-07-25T15:39:32.705Z,35.11
2022-07-25T16:20:54.682Z,38.17
2022-07-25T16:29:09.750Z,39.53
2022-07-25T16:32:12.569Z,39.57
2022-07-25T16:34:40.399Z,39.61
2022-07-25T16:37:09.048Z,39.84
2022-07-25T16:39:36.847Z,39.80
2022-07-25T16:42:04.817Z,40.08
2022-07-25T16:44:37.128Z,40.58
2022-07-25T17:26:05.153Z,40.64
2022-07-25T17:33:39.429Z,40.10
2022-07-25T17:37:39.134Z,40.51
2022-07-25T17:59:45.102Z,40.42
2022-07-25T18:02:14.623Z,41.60
2022-07-25T18:04:43.140Z,41.49
2022-07-25T18:07:11.677Z,40.56
2022-07-25T18:10:40.574Z,41.90
2022-07-25T18:29:48.650Z,40.39
2022-07-25T18:42:04.719Z,40.85
2022-07-25T18:48:41.971Z,42.43
2022-07-25T18:51:10.221Z,41.75
2022-07-25T18:53:39.158Z,42.25
2022-07-25T18:56:07.742Z,42.13
2022-07-25T19:50:39.121Z,46.69
2022-07-25T19:53:06.853Z,46.01
2022-07-25T19:55:34.586Z,47.08
2022-07-25T20:08:08.322Z,45.84
2022-07-25T20:15:07.463Z,45.73
2022-07-25T20:18:24.759Z,46.70
2022-07-25T20:21:21.661Z,47.09
2022-07-25T20:27:33.833Z,48.94
2022-07-25T20:30:05.911Z,49.74
2022-07-25T20:32:34.317Z,49.97
2022-07-25T20:35:02.622Z,49.47
2022-07-25T20:37:30.331Z,49.11
2022-07-25T20:39:59.466Z,48.74
2022-07-25T20:42:27.458Z,48.62
2022-07-25T20:50:33.280Z,49.88
2022-07-25T20:53:03.229Z,50.04
2022-07-25T20:55:38.893Z,48.01
2022-07-25T21:00:54.637Z,49.90
2022-07-25T21:03:51.553Z,49.26
2022-07-25T21:06:27.251Z,50.94
2022-07-25T21:08:55.400Z,51.07
2022-07-25T21:11:24.672Z,51.31
2022-07-25T21:13:52.477Z,50.81
2022-07-25T21:16:20.888Z,51.50
2022-07-25T21:18:49.075Z,51.98
2022-07-25T21:21:22.846Z,51.96
2022-07-25T21:25:17.547Z,51.72
2022-07-25T21:28:41.969Z,52.88
2022-07-25T21:31:18.074Z,52.40
2022-07-25T21:33:47.755Z,52.92
2022-07-25T21:36:45.101Z,53.35
2022-07-25T21:39:16.089Z,53.52
2022-07-25T21:41:55.393Z,53.51
2022-07-25T21:44:42.786Z,53.59
2022-07-25T21:47:14.109Z,53.96
2022-07-25T21:50:00.219Z,53.53
2022-07-25T21:52:34.443Z,53.91
2022-07-25T21:55:07.870Z,54.08
2022-07-25T21:57:48.171Z,54.25
2022-07-25T22:00:41.714Z,54.30
2022-07-25T22:03:19.306Z,54.37
2022-07-25T22:05:56.244Z,54.12
2022-07-25T22:08:37.320Z,54.90
2022-07-25T22:11:42.522Z,54.71
2022-07-25T22:14:15.373Z,55.99
2022-07-25T22:16:45.347Z,54.81
2022-07-25T22:19:14.336Z,55.29
2022-07-25T22:21:46.819Z,55.45
2022-07-25T22:24:15.807Z,55.35
2022-07-25T22:26:45.958Z,55.91
2022-07-25T22:29:14.579Z,56.47
2022-07-25T22:31:44.660Z,56.75
2022-07-25T22:34:13.316Z,57.32
2022-07-25T22:36:41.199Z,57.16
2022-07-25T22:39:09.447Z,57.67
2022-07-25T22:41:38.906Z,57.03
2022-07-25T22:44:09.646Z,55.85
2022-07-25T22:46:41.433Z,55.12
2022-07-25T22:49:22.621Z,53.65
2022-07-25T22:51:57.409Z,52.81
2022-07-25T22:54:33.926Z,52.52
2022-07-25T22:57:20.663Z,52.04
2022-07-25T23:00:14.601Z,51.63
2022-07-25T23:02:42.893Z,51.71
2022-07-25T23:05:12.322Z,51.91
2022-07-25T23:07:40.286Z,51.75
2022-07-25T23:10:09.528Z,50.91
2022-07-25T23:12:37.506Z,50.99
2022-07-25T23:15:06.297Z,50.85
2022-07-25T23:17:37.053Z,50.83
2022-07-25T23:20:35.000Z,50.81
2022-07-25T23:23:03.429Z,50.15
2022-07-25T23:25:31.621Z,50.46
2022-07-25T23:27:59.856Z,50.72
2022-07-25T23:30:27.793Z,50.39
2022-07-25T23:32:55.726Z,50.39
2022-07-25T23:36:09.015Z,49.99
2022-07-25T23:39:00.589Z,50.29
2022-07-25T23:41:38.552Z,50.84
2022-07-25T23:45:16.493Z,50.92
2022-07-25T23:47:52.571Z,50.92
2022-07-25T23:50:48.065Z,51.74
2022-07-25T23:53:19.180Z,51.20
2022-07-25T23:55:51.058Z,51.75
2022-07-25T23:58:28.493Z,51.58
